createdAt,value
2023-10-01T00:02:56.702Z,14.20
2023-10-01T00:07:52.668Z,14.10
2023-10-01T00:12:48.935Z,14.00
2023-10-01T00:17:45.721Z,14.00
2023-10-01T00:22:40.548Z,14.00
2023-10-01T00:27:33.916Z,13.80
2023-10-01T00:32:29.906Z,13.80
2023-10-01T00:37:23.923Z,13.70
2023-10-01T00:42:18.650Z,13.80
2023-10-01T00:47:12.345Z,13.70
2023-10-01T00:52:11.409Z,13.80
2023-10-01T00:57:04.994Z,13.80
2023-10-01T01:01:59.929Z,13.80
2023-10-01T01:06:53.736Z,13.80
2023-10-01T01:11:49.300Z,13.70
2023-10-01T01:16:42.955Z,13.60
2023-10-01T01:21:43.422Z,13.60
2023-10-01T01:26:39.168Z,13.50
2023-10-01T01:31:46.937Z,13.60
2023-10-01T01:36:41.047Z,13.60
2023-10-01T01:41:34.322Z,13.60
2023-10-01T01:46:29.145Z,13.60
2023-10-01T01:51:22.728Z,13.50
2023-10-01T01:56:18.152Z,13.40
2023-10-01T02:01:19.117Z,13.40
2023-10-01T02:06:15.116Z,13.30
2023-10-01T02:11:10.361Z,13.30
2023-10-01T02:16:20.321Z,13.40
2023-10-01T02:21:18.584Z,13.40
2023-10-01T02:26:14.251Z,13.40
2023-10-01T02:31:09.697Z,13.30
2023-10-01T02:36:03.832Z,13.10
2023-10-01T02:40:59.750Z,13.10
2023-10-01T02:45:53.357Z,13.00
2023-10-01T02:50:53.338Z,13.10
2023-10-01T02:55:47.729Z,13.10
2023-10-01T03:00:44.141Z,13.20
2023-10-01T03:05:37.889Z,13.10
2023-10-01T03:10:33.344Z,13.10
2023-10-01T03:15:29.087Z,13.10
2023-10-01T03:20:38.615Z,13.00
2023-10-01T03:25:42.203Z,13.00
2023-10-01T03:30:36.047Z,13.00
2023-10-01T03:35:31.510Z,12.90
2023-10-01T03:40:25.047Z,12.80
2023-10-01T03:45:38.649Z,12.80
2023-10-01T03:50:33.593Z,12.80
2023-10-01T03:55:31.588Z,12.90
2023-10-01T04:00:35.595Z,12.80
2023-10-01T04:05:35.077Z,12.70
2023-10-01T04:10:31.938Z,12.70
2023-10-01T04:15:30.369Z,12.60
2023-10-01T04:20:23.808Z,12.60
2023-10-01T04:25:19.833Z,12.60
2023-10-01T04:30:16.027Z,12.60
2023-10-01T04:35:21.433Z,12.50
2023-10-01T04:40:29.648Z,12.50
2023-10-01T04:45:37.541Z,12.50
2023-10-01T04:50:31.721Z,12.60
2023-10-01T04:55:28.240Z,12.60
2023-10-01T05:00:24.174Z,12.50
2023-10-01T05:05:27.603Z,12.50
2023-10-01T05:10:23.930Z,12.30
2023-10-01T05:15:26.105Z,12.20
2023-10-01T05:20:21.549Z,12.30
2023-10-01T05:25:15.132Z,12.30
2023-10-01T05:30:29.924Z,12.30
2023-10-01T05:35:24.764Z,12.20
2023-10-01T05:40:18.873Z,12.30
2023-10-01T05:45:20.157Z,12.40
2023-10-01T05:50:15.711Z,12.50
2023-10-01T05:55:13.796Z,12.40
2023-10-01T06:00:18.143Z,12.60
2023-10-01T06:05:26.499Z,12.70
2023-10-01T06:10:27.835Z,12.80
2023-10-01T06:15:22.190Z,13.00
2023-10-01T06:20:25.033Z,13.10
2023-10-01T06:25:38.814Z,13.20
2023-10-01T06:30:32.298Z,13.20
2023-10-01T06:35:27.160Z,13.30
2023-10-01T06:40:31.960Z,13.40
2023-10-01T06:45:40.040Z,13.40
2023-10-01T06:50:34.780Z,13.30
2023-10-01T06:55:31.996Z,13.20
2023-10-01T07:00:33.320Z,13.20
2023-10-01T07:05:26.601Z,13.40
2023-10-01T07:10:21.783Z,13.60
2023-10-01T07:15:17.674Z,13.70
2023-10-01T07:20:21.013Z,13.60
2023-10-01T07:25:29.768Z,13.60
2023-10-01T07:30:40.915Z,13.50
2023-10-01T07:35:41.869Z,13.60
2023-10-01T07:40:53.894Z,13.50
2023-10-01T07:45:57.229Z,13.60
2023-10-01T07:50:52.890Z,13.60
2023-10-01T07:55:47.911Z,13.80
2023-10-01T08:00:44.618Z,13.90
2023-10-01T08:05:40.236Z,14.00
2023-10-01T08:10:38.638Z,14.10
2023-10-01T08:15:32.957Z,14.10
2023-10-01T08:20:33.479Z,14.20
2023-10-01T08:25:29.168Z,14.40
2023-10-01T08:30:40.189Z,14.70
2023-10-01T08:35:35.675Z,14.70
2023-10-01T08:40:30.924Z,14.80
2023-10-01T08:45:39.097Z,15.00
2023-10-01T08:50:37.915Z,15.30
2023-10-01T08:55:42.426Z,15.70
2023-10-01T09:00:35.855Z,16.00
2023-10-01T09:05:29.260Z,16.10
2023-10-01T09:10:22.939Z,16.10
2023-10-01T09:15:29.650Z,16.30
2023-10-01T09:20:40.910Z,16.60
2023-10-01T09:25:39.791Z,16.90
2023-10-01T09:30:36.763Z,17.00
2023-10-01T09:35:51.211Z,17.00
2023-10-01T09:40:47.331Z,17.10
2023-10-01T09:45:42.881Z,17.30
2023-10-01T09:50:41.290Z,17.40
2023-10-01T09:55:48.668Z,17.60
2023-10-01T10:00:44.000Z,17.70
2023-10-01T10:05:40.742Z,17.80
2023-10-01T10:10:35.385Z,17.90
2023-10-01T10:15:59.092Z,18.00
2023-10-01T10:21:05.629Z,18.00
2023-10-01T10:26:17.429Z,18.10
2023-10-01T10:31:35.429Z,18.20
2023-10-01T10:36:51.826Z,18.20
2023-10-01T10:42:29.413Z,18.20
2023-10-01T10:47:24.905Z,18.10
2023-10-01T10:52:33.026Z,18.10
2023-10-01T10:57:27.789Z,18.00
2023-10-01T11:02:21.185Z,18.00
2023-10-01T11:07:20.503Z,18.10
2023-10-01T11:12:23.043Z,18.10
2023-10-01T11:17:23.389Z,18.10
2023-10-01T11:22:24.145Z,18.00
2023-10-01T11:27:24.226Z,18.00
2023-10-01T11:32:18.710Z,18.00
2023-10-01T11:37:19.530Z,18.10
2023-10-01T11:42:21.654Z,18.20
2023-10-01T11:47:32.662Z,18.30
2023-10-01T11:52:27.765Z,18.30
2023-10-01T11:57:24.541Z,18.40
2023-10-01T12:02:21.871Z,18.50
2023-10-01T12:07:18.379Z,18.60
2023-10-01T12:12:14.540Z,18.70
2023-10-01T12:17:07.998Z,18.80
2023-10-01T12:22:10.735Z,18.80
2023-10-01T12:27:08.656Z,19.00
2023-10-01T12:32:08.329Z,19.10
2023-10-01T12:37:09.050Z,19.20
2023-10-01T12:42:06.086Z,19.20
2023-10-01T12:47:03.711Z,19.30
2023-10-01T12:51:57.259Z,19.30
2023-10-01T12:57:04.104Z,19.30
2023-10-01T13:01:57.911Z,19.20
2023-10-01T13:06:54.851Z,19.20
2023-10-01T13:11:52.155Z,19.20
2023-10-01T13:16:51.873Z,19.20
2023-10-01T13:21:45.213Z,19.20
2023-10-01T13:26:42.346Z,19.30
2023-10-01T13:31:41.813Z,19.30
2023-10-01T13:36:48.566Z,19.30
2023-10-01T13:42:00.473Z,19.30
2023-10-01T13:47:13.303Z,19.30
2023-10-01T13:52:24.285Z,19.40
2023-10-01T13:57:36.577Z,19.30
2023-10-01T14:02:47.289Z,19.40
2023-10-01T14:07:57.995Z,19.40
2023-10-01T14:13:01.374Z,19.40
2023-10-01T14:17:57.476Z,19.50
2023-10-01T14:22:51.360Z,19.40
2023-10-01T14:27:44.853Z,19.40
2023-10-01T14:32:39.622Z,19.50
2023-10-01T14:37:33.992Z,19.50
2023-10-01T14:42:27.836Z,19.50
2023-10-01T14:47:21.148Z,19.50
2023-10-01T14:52:24.296Z,19.60
2023-10-01T14:57:18.502Z,19.70
2023-10-01T15:02:16.685Z,19.70
2023-10-01T15:07:10.326Z,19.70
2023-10-01T15:12:11.913Z,19.70
2023-10-01T15:17:18.867Z,19.50
2023-10-01T15:22:14.381Z,19.50
2023-10-01T15:27:09.269Z,19.50
2023-10-01T15:32:16.259Z,19.50
2023-10-01T15:37:13.294Z,19.40
2023-10-01T15:42:16.564Z,19.30
2023-10-01T15:47:10.240Z,19.30
2023-10-01T15:52:11.591Z,19.30
2023-10-01T15:57:05.754Z,19.20
2023-10-01T16:02:07.845Z,19.10
2023-10-01T16:07:04.881Z,19.10
2023-10-01T16:11:58.220Z,19.00
2023-10-01T16:16:51.863Z,18.90
2023-10-01T16:21:46.621Z,18.80
2023-10-01T16:26:45.690Z,18.70
2023-10-01T16:31:39.110Z,18.60
2023-10-01T16:36:39.000Z,18.40
2023-10-01T16:41:34.150Z,18.20
2023-10-01T16:46:33.092Z,18.20
2023-10-01T16:51:30.092Z,18.10
2023-10-01T16:56:26.541Z,18.00
2023-10-01T17:01:27.760Z,17.90
2023-10-01T17:06:24.974Z,17.60
2023-10-01T17:11:19.924Z,17.50
2023-10-01T17:16:26.212Z,17.40
2023-10-01T17:21:30.110Z,17.30
2023-10-01T17:26:30.284Z,17.30
2023-10-01T17:31:28.761Z,17.20
2023-10-01T17:36:26.945Z,17.00
2023-10-01T17:41:21.116Z,16.80
2023-10-01T17:46:14.881Z,16.60
2023-10-01T17:51:12.294Z,16.40
2023-10-01T17:56:21.426Z,16.40
2023-10-01T18:01:16.424Z,16.30
2023-10-01T18:06:22.148Z,16.20
2023-10-01T18:11:19.353Z,16.20
2023-10-01T18:16:26.919Z,16.10
2023-10-01T18:21:24.073Z,16.00
2023-10-01T18:26:21.436Z,16.00
2023-10-01T18:31:18.897Z,15.90
2023-10-01T18:36:22.183Z,15.90
2023-10-01T18:41:21.699Z,15.90
2023-10-01T18:46:20.039Z,15.90
2023-10-01T18:51:15.460Z,15.90
2023-10-01T18:56:10.331Z,15.80
2023-10-01T19:01:05.997Z,15.70
2023-10-01T19:06:02.202Z,15.70
2023-10-01T19:11:01.149Z,15.60
2023-10-01T19:15:59.540Z,15.50
2023-10-01T19:20:56.811Z,15.50
2023-10-01T19:25:50.289Z,15.50
2023-10-01T19:30:51.491Z,15.50
2023-10-01T19:35:52.940Z,15.40
2023-10-01T19:40:50.661Z,15.20
2023-10-01T19:45:44.167Z,15.10
2023-10-01T19:50:44.521Z,15.10
2023-10-01T19:55:39.706Z,14.90
2023-10-01T20:00:35.798Z,14.80
2023-10-01T20:05:29.088Z,14.90
2023-10-01T20:10:33.033Z,15.00
2023-10-01T20:15:29.930Z,15.00
2023-10-01T20:20:32.590Z,14.90
2023-10-01T20:25:34.006Z,14.90
2023-10-01T20:30:32.498Z,14.80
2023-10-01T20:35:29.387Z,14.80
2023-10-01T20:40:23.059Z,14.80
2023-10-01T20:45:24.476Z,14.60
2023-10-01T20:50:43.339Z,14.50
2023-10-01T20:55:36.767Z,14.50
2023-10-01T21:00:39.078Z,14.60
2023-10-01T21:05:38.074Z,14.60
2023-10-01T21:10:36.670Z,14.60
2023-10-01T21:15:29.982Z,14.40
2023-10-01T21:20:23.825Z,14.40
2023-10-01T21:25:25.707Z,14.30
2023-10-01T21:30:19.646Z,14.30
2023-10-01T21:35:19.042Z,14.20
2023-10-01T21:40:24.124Z,14.10
2023-10-01T21:45:41.945Z,14.20
2023-10-01T21:50:38.671Z,14.20
2023-10-01T21:55:36.199Z,14.30
2023-10-01T22:01:02.210Z,14.20
2023-10-01T22:05:57.182Z,14.20
2023-10-01T22:10:52.354Z,14.00
2023-10-01T22:15:45.858Z,13.90
2023-10-01T22:20:41.538Z,13.90
2023-10-01T22:25:35.244Z,14.00
2023-10-01T22:30:31.694Z,14.00
2023-10-01T22:35:26.497Z,13.90
2023-10-01T22:40:19.985Z,13.80
2023-10-01T22:45:27.691Z,13.80
2023-10-01T22:50:22.959Z,13.70
2023-10-01T22:55:17.450Z,13.70
2023-10-01T23:00:13.660Z,13.70
2023-10-01T23:05:07.868Z,13.70
2023-10-01T23:10:03.129Z,13.70
2023-10-01T23:14:59.305Z,13.70
2023-10-01T23:19:54.540Z,13.80
2023-10-01T23:24:53.044Z,13.80
2023-10-01T23:29:48.109Z,13.80
2023-10-01T23:34:45.205Z,13.70
2023-10-01T23:39:40.208Z,13.60
2023-10-01T23:44:53.977Z,13.60
2023-10-01T23:49:49.515Z,13.60
2023-10-01T23:54:47.488Z,13.60
2023-10-01T23:59:49.054Z,13.50
